Time;durP1;ratioP1;P1;durP2;ratioP2;P2;SDS_P1;SDS_P2;PMS_P1;PMS_P2;Temp;Humidity;BMP_temperature;BMP_pressure;BME280_temperature;BME280_humidity;BME280_pressure;Samples;Min_cycle;Max_cycle;Signal;HPM_P1;HPM_P2
2023/01/02 00:00:00;;;;;;;13.65;6.15;;;;;;;10.89;100.00;100896.47;4973916;28;20073;-87
2023/01/02 00:02:26;;;;;;;14.10;6.25;;;;;;;10.95;100.00;100896.84;4971296;28;20018;-87
2023/01/02 00:04:52;;;;;;;17.67;6.82;;;;;;;10.97;100.00;100904.63;4972307;28;20082;-88
2023/01/02 00:07:18;;;;;;;14.93;6.38;;;;;;;10.98;100.00;100896.59;4970267;28;20023;-87
2023/01/02 00:09:43;;;;;;;15.43;6.82;;;;;;;10.97;100.00;100905.47;4970064;28;20395;-87
2023/01/02 00:12:09;;;;;;;11.93;6.25;;;;;;;11.01;100.00;100899.97;4971038;28;20047;-88
2023/01/02 00:14:34;;;;;;;11.88;6.57;;;;;;;11.01;100.00;100902.59;4974426;28;20026;-88
2023/01/02 00:16:59;;;;;;;10.50;5.78;;;;;;;10.99;100.00;100892.19;4976885;28;20061;-87
2023/01/02 00:19:25;;;;;;;15.88;6.28;;;;;;;10.98;100.00;100891.34;4977646;28;20101;-88
2023/01/02 00:21:50;;;;;;;16.58;6.40;;;;;;;11.00;100.00;100888.59;4977459;28;20022;-88
2023/01/02 00:24:15;;;;;;;13.55;6.50;;;;;;;11.00;100.00;100888.59;4974283;28;20031;-88
2023/01/02 00:26:41;;;;;;;13.60;6.57;;;;;;;11.02;100.00;100876.16;4978167;28;20352;-88
2023/01/02 00:29:06;;;;;;;14.07;6.72;;;;;;;11.03;100.00;100883.09;4978374;28;20026;-88
2023/01/02 00:31:32;;;;;;;20.95;7.32;;;;;;;11.02;100.00;100885.84;4976322;28;20054;-88
2023/01/02 00:33:57;;;;;;;18.95;7.32;;;;;;;11.02;100.00;100881.41;4977007;28;20026;-88
2023/01/02 00:36:23;;;;;;;18.60;7.50;;;;;;;11.01;100.00;100885.00;4977215;28;20042;-88
2023/01/02 00:38:48;;;;;;;15.32;7.45;;;;;;;11.02;100.00;100870.88;4977402;28;20019;-88
2023/01/02 00:41:14;;;;;;;18.20;8.23;;;;;;;11.01;100.00;100874.47;4976697;28;20546;-88
2023/01/02 00:43:39;;;;;;;16.90;7.85;;;;;;;11.01;100.00;100869.22;4977377;28;20057;-88
2023/01/02 00:46:05;;;;;;;14.25;7.43;;;;;;;11.02;100.00;100876.16;4979349;28;20035;-90
2023/01/02 00:48:30;;;;;;;18.50;7.82;;;;;;;11.04;100.00;100873.41;4973874;28;20016;-88
2023/01/02 00:50:55;;;;;;;14.77;7.15;;;;;;;11.09;100.00;100873.88;4976853;28;20031;-88
2023/01/02 00:53:21;;;;;;;13.55;7.22;;;;;;;11.10;100.00;100867.66;4978947;28;20498;-88
2023/01/02 00:55:47;;;;;;;14.23;6.90;;;;;;;11.11;100.00;100867.56;4979948;28;20034;-88
2023/01/02 00:58:12;;;;;;;14.35;6.88;;;;;;;11.14;100.00;100863.84;4977227;28;20376;-89
2023/01/02 01:00:38;;;;;;;14.93;7.00;;;;;;;11.18;100.00;100852.97;4970830;28;20035;-88
2023/01/02 01:03:03;;;;;;;17.00;7.05;;;;;;;11.21;100.00;100851.91;4976261;28;20527;-89
2023/01/02 01:05:28;;;;;;;14.65;5.88;;;;;;;11.24;100.00;100852.50;4976148;28;20035;-88
2023/01/02 01:07:55;;;;;;;19.08;6.05;;;;;;;11.31;100.00;100844.97;4976376;28;20030;-88
2023/01/02 01:10:22;;;;;;;16.77;6.15;;;;;;;11.36;100.00;100855.16;4976275;28;20450;-88
2023/01/02 01:12:51;;;;;;;15.55;6.07;;;;;;;11.40;100.00;100848.69;4977070;28;20053;-87
2023/01/02 01:15:17;;;;;;;12.20;5.70;;;;;;;11.40;100.00;100851.31;4976108;28;20619;-87
2023/01/02 01:17:42;;;;;;;16.80;6.22;;;;;;;11.41;100.00;100847.72;4972512;28;20023;-88
2023/01/02 01:20:08;;;;;;;11.70;5.75;;;;;;;11.43;100.00;100848.44;4975039;28;20011;-88
2023/01/02 01:22:34;;;;;;;15.93;5.63;;;;;;;11.45;100.00;100849.16;4976244;28;20122;-89
2023/01/02 01:24:59;;;;;;;12.77;5.60;;;;;;;11.45;100.00;100842.09;4976589;28;20440;-88
2023/01/02 01:27:24;;;;;;;14.05;5.95;;;;;;;11.49;100.00;100847.97;4973789;28;20024;-87
2023/01/02 01:29:50;;;;;;;15.25;5.38;;;;;;;11.50;100.00;100844.38;4973861;28;20030;-87
2023/01/02 01:32:15;;;;;;;12.07;5.45;;;;;;;11.51;100.00;100846.88;4975327;28;20390;-88
2023/01/02 01:34:41;;;;;;;14.98;5.75;;;;;;;11.54;100.00;100851.09;4973620;28;20038;-87
2023/01/02 01:37:06;;;;;;;14.13;4.93;;;;;;;11.52;100.00;100838.03;4974566;28;20026;-88
2023/01/02 01:39:31;;;;;;;11.85;5.15;;;;;;;11.52;100.00;100851.19;4975556;28;20472;-87
2023/01/02 01:42:00;;;;;;;17.38;5.10;;;;;;;11.53;100.00;100849.41;4975337;28;20011;-88
2023/01/02 01:44:48;;;;;;;12.52;5.20;;;;;;;11.55;100.00;100847.47;4974285;28;20541;-88
2023/01/02 01:47:23;;;;;;;13.82;4.78;;;;;;;11.54;100.00;100851.09;4970849;28;20054;-88
2023/01/02 01:50:01;;;;;;;14.43;5.32;;;;;;;11.53;100.00;100860.78;4958723;28;20110;-89
2023/01/02 01:52:28;;;;;;;11.02;5.30;;;;;;;11.53;100.00;100866.06;4975349;28;20039;-89
2023/01/02 01:54:59;;;;;;;12.95;4.82;;;;;;;11.55;100.00;100874.69;4990763;28;20117;-88
2023/01/02 01:57:36;;;;;;;16.35;5.28;;;;;;;11.55;100.00;100871.19;4978471;28;20476;-87
2023/01/02 02:00:03;;;;;;;10.77;4.95;;;;;;;11.57;100.00;100867.50;4956817;28;20391;-87
2023/01/02 02:02:32;;;;;;;14.02;5.22;;;;;;;11.58;100.00;100873.59;4975551;28;20034;-88
2023/01/02 02:05:01;;;;;;;13.40;4.82;;;;;;;11.58;100.00;100870.97;4975362;28;20030;-87
2023/01/02 02:07:27;;;;;;;14.23;5.05;;;;;;;11.57;100.00;100862.22;4977076;28;20038;-87
2023/01/02 02:10:04;;;;;;;12.45;4.80;;;;;;;11.59;100.00;100868.22;4975911;28;20027;-87
2023/01/02 02:12:32;;;;;;;11.32;4.95;;;;;;;11.57;100.00;100862.22;4964785;28;20488;-87
2023/01/02 02:14:57;;;;;;;13.88;4.75;;;;;;;11.58;100.00;100868.31;4973373;28;20105;-86
2023/01/02 02:17:38;;;;;;;13.32;4.75;;;;;;;11.58;100.00;100868.31;4976039;28;20479;-87
2023/01/02 02:20:17;;;;;;;13.50;4.88;;;;;;;11.59;100.00;100870.00;4974527;28;20510;-88
2023/01/02 02:23:26;;;;;;;15.20;4.97;;;;;;;11.61;100.00;100865.47;4974477;28;20472;-87
2023/01/02 02:26:22;;;;;;;13.90;4.78;;;;;;;11.62;100.00;100877.69;4976494;28;20031;-88
2023/01/02 02:29:05;;;;;;;11.00;4.80;;;;;;;11.59;100.00;100875.28;4979981;28;20046;-88
2023/01/02 02:32:12;;;;;;;16.77;5.00;;;;;;;11.59;100.00;100875.28;4980751;28;20071;-88
2023/01/02 02:34:56;;;;;;;10.05;4.90;;;;;;;11.60;100.00;100869.03;4950342;28;20067;-87
2023/01/02 02:37:21;;;;;;;13.57;4.50;;;;;;;11.60;100.00;100871.69;4981159;28;20035;-87
2023/01/02 02:39:47;;;;;;;11.45;4.82;;;;;;;11.60;100.00;100874.31;4994532;28;20054;-88
2023/01/02 02:42:47;;;;;;;14.63;4.63;;;;;;;11.60;100.00;100877.78;4973114;28;20063;-89
2023/01/02 02:45:30;;;;;;;14.38;4.93;;;;;;;11.60;100.00;100866.41;4956013;28;20046;-88
2023/01/02 02:48:10;;;;;;;11.15;4.70;;;;;;;11.65;100.00;100868.72;4971816;28;20043;-88
2023/01/02 02:50:41;;;;;;;18.63;5.70;;;;;;;11.64;100.00;100881.06;4963210;28;20078;-87
2023/01/02 02:53:24;;;;;;;12.25;4.65;;;;;;;11.65;100.00;100874.81;4974389;28;20439;-88
2023/01/02 02:55:56;;;;;;;12.77;4.25;;;;;;;11.66;100.00;100878.28;4991292;28;20073;-88
2023/01/02 02:58:24;;;;;;;13.65;4.57;;;;;;;11.66;100.00;100873.03;4962004;28;20063;-88
2023/01/02 03:00:49;;;;;;;12.77;4.50;;;;;;;11.67;100.00;100872.91;4975917;28;20038;-88
2023/01/02 03:03:20;;;;;;;13.98;4.60;;;;;;;11.65;100.00;100869.56;4961723;28;20428;-88
2023/01/02 03:05:58;;;;;;;9.98;4.00;;;;;;;11.66;100.00;100871.22;4957021;28;20306;-89
2023/01/02 03:08:47;;;;;;;9.77;4.40;;;;;;;11.69;100.00;100865.72;4971247;28;20396;-89
2023/01/02 03:11:13;;;;;;;13.40;4.80;;;;;;;11.67;100.00;100867.63;4972988;28;20535;-89
2023/01/02 03:13:54;;;;;;;12.68;4.45;;;;;;;11.65;100.00;100868.72;4979258;28;20381;-88
2023/01/02 03:16:40;;;;;;;10.80;4.10;;;;;;;11.63;100.00;100866.19;4974209;28;20546;-88
2023/01/02 03:19:10;;;;;;;10.00;4.20;;;;;;;11.65;100.00;100858.16;4979541;28;20042;-89
2023/01/02 03:21:47;;;;;;;11.65;4.43;;;;;;;11.62;100.00;100859.25;4957182;28;20085;-88
2023/01/02 03:24:17;;;;;;;14.45;5.00;;;;;;;11.59;100.00;100857.66;4958511;28;20110;-89
2023/01/02 03:26:45;;;;;;;11.10;4.65;;;;;;;11.59;100.00;100856.81;4972357;28;20026;-88
2023/01/02 03:29:29;;;;;;;12.20;4.75;;;;;;;11.58;100.00;100848.09;4971915;28;20372;-88
2023/01/02 03:31:55;;;;;;;13.13;4.30;;;;;;;11.57;100.00;100858.75;4971490;28;21976;-88
2023/01/02 03:34:24;;;;;;;10.20;4.25;;;;;;;11.57;100.00;100861.38;4970737;28;20070;-88
2023/01/02 03:36:54;;;;;;;12.27;4.15;;;;;;;11.56;100.00;100862.34;4985890;28;20027;-87
2023/01/02 03:39:25;;;;;;;10.13;3.90;;;;;;;11.59;100.00;100864.72;4985921;28;20038;-87
2023/01/02 03:41:56;;;;;;;13.20;4.93;;;;;;;11.58;100.00;100873.59;4972473;28;20011;-88
2023/01/02 03:44:27;;;;;;;11.32;4.13;;;;;;;11.59;100.00;100877.91;4967817;28;20026;-87
2023/01/02 03:46:58;;;;;;;8.88;4.10;;;;;;;11.60;100.00;100879.59;4970559;28;20033;-88
2023/01/02 03:49:31;;;;;;;11.73;3.88;;;;;;;11.57;100.00;100871.91;4970264;28;20039;-87
2023/01/02 03:51:57;;;;;;;12.68;4.30;;;;;;;11.58;100.00;100876.22;4972043;28;20121;-86
2023/01/02 03:54:22;;;;;;;12.50;4.15;;;;;;;11.59;100.00;100885.81;4985763;28;20141;-88
2023/01/02 03:57:20;;;;;;;10.63;4.55;;;;;;;11.63;100.00;100887.28;4970916;28;20026;-87
2023/01/02 04:00:09;;;;;;;11.82;4.28;;;;;;;11.60;100.00;100883.06;4972575;28;20029;-87
2023/01/02 04:02:43;;;;;;;10.73;4.30;;;;;;;11.60;100.00;100887.50;4964902;28;20046;-87
2023/01/02 04:05:19;;;;;;;9.70;3.67;;;;;;;11.62;100.00;100896.16;4968353;28;20138;-87
2023/01/02 04:08:04;;;;;;;7.82;3.70;;;;;;;11.63;100.00;100900.47;4967164;28;20077;-88
2023/01/02 04:10:32;;;;;;;9.63;4.10;;;;;;;11.62;100.00;100893.50;4977124;28;20105;-87
2023/01/02 04:13:03;;;;;;;12.75;4.63;;;;;;;11.60;100.00;100892.75;4975417;28;20039;-87
2023/01/02 04:15:32;;;;;;;10.57;4.80;;;;;;;11.57;100.00;100898.28;4975067;28;20121;-87
2023/01/02 04:18:07;;;;;;;10.27;4.53;;;;;;;11.56;100.00;100896.59;4988627;28;20031;-87
2023/01/02 04:20:37;;;;;;;10.02;4.20;;;;;;;11.54;100.00;100899.34;4974525;28;20030;-87
2023/01/02 04:23:11;;;;;;;11.65;4.18;;;;;;;11.51;100.00;100915.41;4973229;28;20369;-87
2023/01/02 04:25:43;;;;;;;14.88;4.20;;;;;;;11.51;100.00;100915.41;4973391;28;20034;-87
2023/01/02 04:28:19;;;;;;;12.48;4.78;;;;;;;11.51;100.00;100919.84;4974181;28;20026;-87
2023/01/02 04:30:56;;;;;;;12.30;4.60;;;;;;;11.50;100.00;100915.50;4972637;28;20442;-87
2023/01/02 04:33:23;;;;;;;12.15;4.68;;;;;;;11.50;100.00;100921.63;4971365;28;20042;-87
2023/01/02 04:35:49;;;;;;;12.25;4.28;;;;;;;11.47;100.00;100907.84;4972375;28;20026;-87
2023/01/02 04:38:14;;;;;;;10.27;4.30;;;;;;;11.48;100.00;100906.91;4973036;28;20073;-86
2023/01/02 04:40:40;;;;;;;9.75;4.40;;;;;;;11.48;100.00;100914.78;4970257;28;20038;-87
2023/01/02 04:43:20;;;;;;;11.57;4.30;;;;;;;11.50;100.00;100920.78;4972465;28;20379;-86
2023/01/02 04:45:47;;;;;;;12.05;4.45;;;;;;;11.50;100.00;100915.50;4973800;28;20580;-87
2023/01/02 04:48:13;;;;;;;10.15;4.45;;;;;;;11.48;100.00;100922.69;4972931;28;20023;-87
2023/01/02 04:50:38;;;;;;;13.48;4.38;;;;;;;11.50;100.00;100928.69;4968863;28;20439;-87
2023/01/02 04:53:04;;;;;;;11.30;4.15;;;;;;;11.50;100.00;100923.41;4968628;28;20037;-87
2023/01/02 04:55:29;;;;;;;9.43;4.15;;;;;;;11.51;100.00;100922.47;4972412;28;20034;-88
2023/01/02 04:57:56;;;;;;;13.30;4.70;;;;;;;11.48;100.00;100925.34;4971996;28;20122;-87
2023/01/02 05:00:21;;;;;;;10.60;4.13;;;;;;;11.50;100.00;100939.22;4975326;28;20051;-87
2023/01/02 05:02:47;;;;;;;10.70;4.15;;;;;;;11.51;100.00;100946.19;4979395;28;20061;-88
2023/01/02 05:05:12;;;;;;;12.25;4.60;;;;;;;11.52;100.00;100953.97;4977785;28;20027;-88
2023/01/02 05:07:38;;;;;;;13.52;4.57;;;;;;;11.51;100.00;100940.91;4974597;28;20238;-88
2023/01/02 05:10:04;;;;;;;11.18;4.38;;;;;;;11.52;100.00;100950.50;4974062;28;20030;-88
2023/01/02 05:12:33;;;;;;;10.88;4.10;;;;;;;11.52;100.00;100942.59;4973346;28;20474;-88
2023/01/02 05:14:59;;;;;;;10.52;4.05;;;;;;;11.51;100.00;100935.63;4974216;28;20023;-87
2023/01/02 05:17:24;;;;;;;10.82;3.90;;;;;;;11.52;100.00;100947.84;4973645;28;20026;-88
2023/01/02 05:19:50;;;;;;;10.77;4.15;;;;;;;11.52;100.00;100947.84;4973029;28;20084;-87
2023/01/02 05:24:59;;;;;;;9.05;3.90;;;;;;;11.53;100.00;100950.38;4963145;28;20042;-87
2023/01/02 05:27:24;;;;;;;8.90;3.63;;;;;;;11.55;100.00;100952.88;4975875;28;20034;-87
2023/01/02 05:29:50;;;;;;;13.75;3.78;;;;;;;11.55;100.00;100955.53;4976475;28;20019;-86
2023/01/02 05:32:15;;;;;;;9.07;3.78;;;;;;;11.57;100.00;100966.78;4975761;28;20042;-86
2023/01/02 05:34:40;;;;;;;12.52;3.78;;;;;;;11.57;100.00;100961.50;4975382;28;20041;-86
2023/01/02 05:37:06;;;;;;;8.38;3.67;;;;;;;11.57;100.00;100966.78;4976275;28;20102;-87
2023/01/02 05:39:31;;;;;;;8.88;3.70;;;;;;;11.53;100.00;100975.88;4974996;28;20034;-86
2023/01/02 05:41:56;;;;;;;10.70;3.78;;;;;;;11.55;100.00;100984.50;4973809;28;20034;-87
2023/01/02 05:44:22;;;;;;;6.60;3.15;;;;;;;11.56;100.00;100991.47;4988550;28;20030;-86
2023/01/02 05:46:47;;;;;;;8.00;3.20;;;;;;;11.55;100.00;100987.16;4969347;28;20051;-85
2023/01/02 05:49:12;;;;;;;9.95;3.88;;;;;;;11.56;100.00;100994.09;4968992;28;20058;-87
2023/01/02 05:51:39;;;;;;;9.23;3.00;;;;;;;11.57;100.00;101001.03;4975289;28;20287;-86
2023/01/02 05:54:04;;;;;;;8.63;3.15;;;;;;;11.54;100.00;100986.31;4973814;28;20039;-86
2023/01/02 05:56:30;;;;;;;6.97;3.65;;;;;;;11.57;100.00;100998.41;4972288;28;20081;-86
2023/01/02 05:58:55;;;;;;;9.70;3.38;;;;;;;11.55;100.00;101001.16;4971378;28;20037;-86
2023/01/02 06:01:26;;;;;;;8.93;3.75;;;;;;;11.56;100.00;101005.47;4972317;28;20050;-86
2023/01/02 06:03:55;;;;;;;8.23;3.10;;;;;;;11.55;100.00;101001.16;4988407;28;20046;-85
2023/01/02 06:06:28;;;;;;;7.93;3.97;;;;;;;11.55;100.00;101005.59;4972929;28;20038;-89
2023/01/02 06:08:54;;;;;;;11.48;3.40;;;;;;;11.54;100.00;101014.47;4973090;28;20050;-88
2023/01/02 06:11:20;;;;;;;8.57;3.30;;;;;;;11.50;100.00;101019.13;4982789;28;20014;-88
2023/01/02 06:13:45;;;;;;;13.13;3.92;;;;;;;11.46;100.00;101012.41;4989450;28;20043;-87
2023/01/02 06:16:11;;;;;;;7.47;3.47;;;;;;;11.43;100.00;101024.97;4975621;28;20388;-88
2023/01/02 06:18:38;;;;;;;11.35;3.70;;;;;;;11.37;100.00;101031.53;4972631;28;20118;-88
2023/01/02 06:21:09;;;;;;;8.48;3.63;;;;;;;11.34;100.00;101039.66;4972295;28;20034;-89
2023/01/02 06:23:34;;;;;;;10.90;2.85;;;;;;;11.29;100.00;101050.56;4972983;28;20154;-89
2023/01/02 06:26:14;;;;;;;5.72;3.10;;;;;;;11.23;100.00;101058.91;4976842;28;20054;-89
2023/01/02 06:28:40;;;;;;;5.20;2.95;;;;;;;11.15;100.00;101082.31;4974812;28;20075;-89
2023/01/02 06:31:15;;;;;;;4.32;2.60;;;;;;;11.00;100.00;101099.22;4974940;28;20030;-90
2023/01/02 06:33:41;;;;;;;10.57;2.35;;;;;;;10.86;100.00;101099.38;4971956;28;20034;-89
2023/01/02 06:36:09;;;;;;;2.97;1.70;;;;;;;10.71;100.00;101096.00;4975648;28;20123;-89
2023/01/02 06:38:35;;;;;;;1.65;1.55;;;;;;;10.68;100.00;101104.97;4964810;28;20126;-88
2023/01/02 06:41:02;;;;;;;1.50;1.23;;;;;;;10.55;100.00;101109.41;4974242;28;20098;-88
2023/01/02 06:43:29;;;;;;;1.85;1.00;;;;;;;10.47;100.00;101127.53;4970733;28;20026;-88
2023/01/02 06:46:00;;;;;;;1.33;1.00;;;;;;;10.38;100.00;101130.75;4972487;28;20027;-88
2023/01/02 06:48:26;;;;;;;2.10;1.00;;;;;;;10.25;100.00;101137.81;4977444;28;20038;-87
2023/01/02 06:50:51;;;;;;;1.15;0.70;;;;;;;10.17;100.00;101140.94;4971064;28;20035;-84
2023/01/02 06:53:17;;;;;;;1.25;0.70;;;;;;;10.12;100.00;101147.47;4970227;28;20034;-85
2023/01/02 06:55:54;;;;;;;1.35;0.73;;;;;;;10.09;100.00;101147.66;4970168;28;20718;-88
2023/01/02 06:58:20;;;;;;;0.70;0.60;;;;;;;9.99;100.00;101164.03;4971849;28;20041;-88
2023/01/02 07:00:46;;;;;;;1.00;0.60;;;;;;;9.93;100.00;101161.81;4971151;28;20026;-88
2023/01/02 07:03:12;;;;;;;1.10;0.70;;;;;;;9.93;100.00;101180.22;4972221;28;20023;-88
2023/01/02 07:05:41;;;;;;;0.82;0.65;;;;;;;9.86;100.00;101178.94;4969974;28;20802;-88
2023/01/02 07:08:10;;;;;;;1.45;0.93;;;;;;;9.78;100.00;101191.75;4970883;28;20503;-88
2023/01/02 07:10:36;;;;;;;1.88;1.20;;;;;;;9.79;100.00;101195.22;4972112;28;20295;-88
2023/01/02 07:13:01;;;;;;;1.30;1.10;;;;;;;9.69;100.00;101202.84;4972954;28;20101;-88
2023/01/02 07:15:27;;;;;;;1.45;1.08;;;;;;;9.72;100.00;101208.75;4971752;28;20033;-88
2023/01/02 07:17:54;;;;;;;1.40;1.30;;;;;;;9.64;100.00;101223.31;4971468;28;20039;-89
2023/01/02 07:20:23;;;;;;;1.60;1.50;;;;;;;9.62;100.00;101235.72;4972862;28;20027;-88
2023/01/02 07:22:53;;;;;;;1.95;1.50;;;;;;;9.58;100.00;101234.19;4971405;28;20030;-88
2023/01/02 07:25:21;;;;;;;2.13;1.80;;;;;;;9.50;100.00;101245.19;4969526;28;20034;-90
2023/01/02 07:27:47;;;;;;;2.53;2.33;;;;;;;9.43;100.00;101250.00;4973420;28;20042;-89
2023/01/02 07:30:13;;;;;;;2.60;2.40;;;;;;;9.45;100.00;101254.31;4973185;28;20073;-89
2023/01/02 07:32:42;;;;;;;3.13;2.83;;;;;;;9.38;100.00;101272.25;4970779;28;20380;-89
2023/01/02 07:35:14;;;;;;;3.20;2.90;;;;;;;9.40;100.00;101272.97;4986713;28;20081;-89
2023/01/02 07:37:40;;;;;;;3.30;3.00;;;;;;;9.36;100.00;101269.72;4969927;28;20038;-89
2023/01/02 07:40:06;;;;;;;4.03;3.65;;;;;;;9.37;100.00;101268.75;4974960;28;20034;-85
2023/01/02 07:42:31;;;;;;;4.05;3.65;;;;;;;9.37;100.00;101279.28;4973738;28;20551;-88
2023/01/02 07:45:00;;;;;;;4.38;3.97;;;;;;;9.38;100.00;101283.59;4973134;28;20058;-89
2023/01/02 07:47:28;;;;;;;5.32;4.93;;;;;;;9.33;100.00;101290.91;4957533;28;20035;-89
2023/01/02 07:49:56;;;;;;;5.82;5.22;;;;;;;9.27;100.00;101304.41;4970631;28;20026;-89
2023/01/02 07:52:22;;;;;;;5.88;5.38;;;;;;;9.30;100.00;101312.09;4967587;28;20702;-86
2023/01/02 07:54:50;;;;;;;6.60;6.00;;;;;;;9.27;100.00;101311.44;4971762;28;20043;-89
2023/01/02 07:57:21;;;;;;;7.10;6.50;;;;;;;9.29;100.00;101320.91;4969101;28;20037;-89
2023/01/02 07:59:48;;;;;;;8.07;7.28;;;;;;;9.26;100.00;101320.25;4986523;28;20034;-89
2023/01/02 08:02:25;;;;;;;8.98;8.18;;;;;;;9.24;100.00;101330.88;4971685;28;20050;-89
2023/01/02 08:05:00;;;;;;;9.43;8.50;;;;;;;9.22;100.00;101345.03;4957065;28;20484;-90
2023/01/02 08:07:26;;;;;;;9.32;8.52;;;;;;;9.18;100.00;101335.63;4950350;28;20098;-89
2023/01/02 08:09:51;;;;;;;9.48;8.50;;;;;;;9.18;100.00;101354.84;4950683;28;20078;-89
2023/01/02 08:12:16;;;;;;;8.50;7.80;;;;;;;9.15;100.00;101352.41;4975426;28;20114;-89
2023/01/02 08:14:42;;;;;;;7.72;7.03;;;;;;;9.09;100.00;101361.47;4961105;28;20125;-90
2023/01/02 08:17:07;;;;;;;7.90;7.18;;;;;;;9.04;100.00;101374.03;4969760;28;20033;-89
2023/01/02 08:19:32;;;;;;;8.07;7.38;;;;;;;9.03;100.00;101372.34;4966644;28;20037;-90
2023/01/02 08:21:58;;;;;;;7.70;7.00;;;;;;;8.99;100.00;101373.47;4966196;28;20038;-89
2023/01/02 08:24:23;;;;;;;7.90;7.10;;;;;;;8.97;100.00;101372.72;4967780;28;20030;-89
2023/01/02 08:26:48;;;;;;;7.68;6.97;;;;;;;8.97;100.00;101377.13;4965217;28;20027;-90
2023/01/02 08:29:14;;;;;;;7.78;7.07;;;;;;;8.93;100.00;101383.50;4965781;28;20481;-89
2023/01/02 08:31:39;;;;;;;7.93;7.13;;;;;;;8.95;100.00;101384.25;4964950;28;20027;-89
2023/01/02 08:34:05;;;;;;;8.25;7.22;;;;;;;8.94;100.00;101391.28;4958805;28;20132;-89
2023/01/02 08:36:30;;;;;;;7.82;6.95;;;;;;;8.92;100.00;101392.28;4973595;28;20022;-90
2023/01/02 08:38:57;;;;;;;7.60;6.90;;;;;;;8.91;100.00;101395.84;4975440;28;20027;-89
2023/01/02 08:41:33;;;;;;;7.82;6.72;;;;;;;8.91;100.00;101404.56;4975820;28;20871;-89
2023/01/02 08:43:58;;;;;;;8.52;7.13;;;;;;;8.87;100.00;101403.06;4973823;28;20034;-94
2023/01/02 08:46:24;;;;;;;7.88;7.18;;;;;;;8.83;100.00;101417.28;4976032;28;20026;-93
2023/01/02 08:48:49;;;;;;;7.55;6.85;;;;;;;8.85;100.00;101406.72;4968316;28;20043;-93
2023/01/02 08:51:15;;;;;;;7.72;6.57;;;;;;;8.79;100.00;101424.47;4969889;28;20049;-93
2023/01/02 08:53:40;;;;;;;10.27;7.47;;;;;;;8.81;100.00;101429.66;4980673;28;20452;-93
2023/01/02 08:56:21;;;;;;;8.43;7.63;;;;;;;8.81;100.00;101440.16;4978034;28;20023;-94
2023/01/02 08:58:51;;;;;;;8.05;7.00;;;;;;;8.75;100.00;101436.06;4968715;28;20113;-93
2023/01/02 09:01:16;;;;;;;8.27;6.57;;;;;;;8.77;100.00;101443.84;4977951;28;20027;-95
2023/01/02 09:03:41;;;;;;;8.27;7.05;;;;;;;8.75;100.00;101441.31;4973035;28;20027;-94
2023/01/02 09:06:07;;;;;;;7.55;6.75;;;;;;;8.73;100.00;101443.19;4978058;28;20030;-94
2023/01/02 09:08:32;;;;;;;7.55;6.55;;;;;;;8.80;100.00;101446.31;4979271;28;20042;-91
2023/01/02 09:10:58;;;;;;;7.18;6.22;;;;;;;8.74;100.00;101455.38;4974538;28;20026;-91
2023/01/02 09:13:23;;;;;;;7.13;5.60;;;;;;;8.77;100.00;101454.34;4975546;28;20135;-91
2023/01/02 09:15:49;;;;;;;6.80;5.80;;;;;;;8.77;100.00;101463.06;4974248;28;20056;-90
2023/01/02 09:18:14;;;;;;;6.97;4.85;;;;;;;8.77;100.00;101472.72;4975265;28;20023;-91
2023/01/02 09:20:41;;;;;;;5.40;4.90;;;;;;;8.76;100.00;101474.50;4979293;28;20023;-91
2023/01/02 09:23:06;;;;;;;7.03;4.95;;;;;;;8.79;100.00;101484.81;4969596;28;20035;-92
2023/01/02 09:25:32;;;;;;;6.55;4.55;;;;;;;8.74;100.00;101499.13;4970456;28;20601;-91
2023/01/02 09:27:57;;;;;;;8.50;4.95;;;;;;;8.81;100.00;101497.03;4962182;28;20026;-92
2023/01/02 09:30:22;;;;;;;7.18;4.60;;;;;;;8.78;100.00;101504.13;4965105;28;20055;-91
2023/01/02 09:32:49;;;;;;;7.05;4.60;;;;;;;8.76;100.00;101505.97;4959107;28;20047;-91
2023/01/02 09:35:15;;;;;;;5.85;4.38;;;;;;;8.77;100.00;101506.81;5003417;28;20537;-91
2023/01/02 09:37:40;;;;;;;7.35;4.53;;;;;;;8.82;100.00;101514.47;4968827;28;20031;-91
2023/01/02 09:40:06;;;;;;;7.93;4.40;;;;;;;8.83;100.00;101517.00;4954958;28;20416;-92
2023/01/02 09:42:32;;;;;;;6.22;4.30;;;;;;;8.86;100.00;101508.97;4957283;28;20117;-91
2023/01/02 09:45:01;;;;;;;7.50;4.43;;;;;;;8.84;100.00;101512.59;4961717;28;20051;-90
2023/01/02 09:47:28;;;;;;;6.13;4.72;;;;;;;8.90;100.00;101517.50;4990195;28;20018;-91
2023/01/02 09:49:59;;;;;;;9.15;5.10;;;;;;;8.94;100.00;101519.88;5010524;28;20038;-91
2023/01/02 09:52:27;;;;;;;8.55;4.72;;;;;;;8.96;100.00;101518.00;4972924;28;20023;-91
2023/01/02 09:54:53;;;;;;;7.47;4.55;;;;;;;8.99;100.00;101523.06;4974188;28;20043;-91
2023/01/02 09:57:28;;;;;;;6.30;4.38;;;;;;;9.01;100.00;101530.84;4973610;28;20480;-90
2023/01/02 09:59:56;;;;;;;5.68;4.63;;;;;;;8.98;100.00;101526.63;4974621;28;20041;-90
2023/01/02 10:02:37;;;;;;;5.30;4.53;;;;;;;8.96;100.00;101532.91;4973368;28;20050;-89
2023/01/02 10:05:31;;;;;;;7.32;4.43;;;;;;;8.99;100.00;101525.69;4973567;28;20038;-89
2023/01/02 10:08:05;;;;;;;6.72;4.70;;;;;;;8.97;100.00;101551.19;4960513;28;20069;-89
2023/01/02 10:10:44;;;;;;;5.80;4.47;;;;;;;8.97;100.00;101547.72;4982766;28;20023;-88
2023/01/02 10:13:30;;;;;;;5.97;4.50;;;;;;;8.98;100.00;101546.78;4975768;28;20169;-89
2023/01/02 10:15:59;;;;;;;6.30;4.85;;;;;;;8.98;100.00;101542.38;5001893;28;20089;-88
2023/01/02 10:18:34;;;;;;;7.88;5.43;;;;;;;9.06;100.00;101549.81;4980511;28;20026;-89
2023/01/02 10:21:13;;;;;;;6.00;5.40;;;;;;;9.07;100.00;101541.00;4983262;28;20034;-88
2023/01/02 10:23:48;;;;;;;8.02;5.38;;;;;;;9.08;100.00;101542.69;4973471;28;20959;-89
2023/01/02 10:26:17;;;;;;;7.05;5.53;;;;;;;9.12;100.00;101533.72;4972169;28;20046;-88
2023/01/02 10:28:56;;;;;;;9.95;5.80;;;;;;;9.15;100.00;101541.41;4965742;28;20231;-88
2023/01/02 10:31:57;;;;;;;8.75;5.95;;;;;;;9.24;100.00;101551.41;4976101;28;20059;-88
2023/01/02 10:34:23;;;;;;;7.18;5.43;;;;;;;9.29;100.00;101562.50;4956368;28;20046;-88
2023/01/02 10:36:51;;;;;;;7.72;6.32;;;;;;;9.26;100.00;101573.19;4991801;28;20026;-89
2023/01/02 10:39:23;;;;;;;7.45;6.07;;;;;;;9.25;100.00;101568.03;4975383;28;20026;-89
2023/01/02 10:41:54;;;;;;;7.57;6.25;;;;;;;9.26;100.00;101567.94;4956146;28;20074;-88
2023/01/02 10:44:36;;;;;;;7.70;6.47;;;;;;;9.31;100.00;101560.63;4970594;28;20031;-89
2023/01/02 10:47:36;;;;;;;9.60;6.88;;;;;;;9.30;100.00;101553.69;4972757;28;20022;-88
2023/01/02 10:50:07;;;;;;;9.35;7.20;;;;;;;9.26;100.00;101572.34;4957283;28;20047;-89
2023/01/02 10:52:49;;;;;;;9.50;7.53;;;;;;;9.26;100.00;101570.56;4956123;28;20063;-89
2023/01/02 10:55:40;;;;;;;8.68;7.78;;;;;;;9.31;100.00;101563.25;4955609;28;20103;-88
2023/01/02 10:58:21;;;;;;;9.70;8.63;;;;;;;9.31;100.00;101571.13;4964072;28;20034;-88
2023/01/02 11:00:48;;;;;;;10.07;8.48;;;;;;;9.31;100.00;101576.38;4972277;28;20392;-89
2023/01/02 11:03:22;;;;;;;9.85;8.70;;;;;;;9.36;100.00;101582.22;4984943;28;20034;-88
2023/01/02 11:05:54;;;;;;;10.80;9.57;;;;;;;9.36;100.00;101584.84;4977966;28;20101;-89
2023/01/02 11:08:39;;;;;;;11.18;9.07;;;;;;;9.42;100.00;101584.50;4975649;28;20062;-89
2023/01/02 11:11:17;;;;;;;11.73;9.70;;;;;;;9.53;100.00;101583.03;4975460;28;20034;-88
2023/01/02 11:13:47;;;;;;;10.68;9.57;;;;;;;9.56;100.00;101593.34;4973916;28;20057;-89
2023/01/02 11:16:15;;;;;;;10.65;9.52;;;;;;;9.62;100.00;101579.88;4977697;28;20050;-88
2023/01/02 11:18:49;;;;;;;12.70;10.00;;;;;;;9.63;100.00;101584.22;4973918;28;20039;-88
2023/01/02 11:21:33;;;;;;;10.45;9.45;;;;;;;9.61;100.00;101593.97;4973717;28;20382;-88
2023/01/02 11:24:05;;;;;;;12.02;10.38;;;;;;;9.56;100.00;101595.97;4986681;28;20102;-88
2023/01/02 11:26:33;;;;;;;10.68;9.57;;;;;;;9.56;100.00;101591.56;4968048;28;20448;-87
2023/01/02 11:29:21;;;;;;;10.90;9.80;;;;;;;9.62;100.00;101606.16;4966424;28;20030;-87
2023/01/02 11:31:50;;;;;;;12.55;10.23;;;;;;;9.57;100.00;101602.91;4973791;28;20023;-87